Time;durP1;ratioP1;P1;durP2;ratioP2;P2;SDS_P1;SDS_P2;PMS_P1;PMS_P2;Temp;Humidity;BMP_temperature;BMP_pressure;BME280_temperature;BME280_humidity;BME280_pressure;Samples;Min_cycle;Max_cycle;Signal;HPM_P1;HPM_P2
2022/11/08 00:03:33;;;;;;;0.97;0.97;;;;;;;12.51;100.00;99961.41;5053486;28;20202;-79
2022/11/08 00:14:12;;;;;;;0.60;0.60;;;;;;;12.54;100.00;99969.03;5055265;28;20211;-79
2022/11/08 00:16:40;;;;;;;0.50;0.50;;;;;;;12.57;100.00;99974.06;5056956;28;20231;-79
2022/11/08 00:19:07;;;;;;;0.50;0.50;;;;;;;12.56;100.00;99969.00;5056458;28;20203;-79
2022/11/08 00:21:34;;;;;;;0.50;0.50;;;;;;;12.54;100.00;99981.03;5057952;28;20197;-79
2022/11/08 00:24:01;;;;;;;0.80;0.80;;;;;;;12.42;100.00;99955.69;5057017;28;20694;-78
2022/11/08 00:26:28;;;;;;;0.60;0.60;;;;;;;12.53;100.00;99972.50;5057508;28;20200;-79
2022/11/08 00:28:54;;;;;;;0.50;0.50;;;;;;;12.52;100.00;99973.38;5058298;28;20285;-79
2022/11/08 00:31:21;;;;;;;0.50;0.50;;;;;;;12.50;100.00;99975.13;5059518;28;20196;-79
2022/11/08 00:33:49;;;;;;;0.70;0.70;;;;;;;12.47;100.00;99970.09;5058541;28;20193;-79
2022/11/08 00:36:16;;;;;;;0.60;0.60;;;;;;;12.38;100.00;99965.22;5058770;28;20222;-79
2022/11/08 00:38:43;;;;;;;1.27;0.80;;;;;;;12.33;100.00;99967.09;5059588;28;20204;-79
2022/11/08 00:41:10;;;;;;;0.43;0.43;;;;;;;12.13;100.00;99961.66;5059534;28;20618;-78
2022/11/08 00:43:37;;;;;;;0.50;0.50;;;;;;;12.09;100.00;99962.59;5058798;28;20208;-78
2022/11/08 00:46:04;;;;;;;0.57;0.57;;;;;;;12.03;100.00;99953.34;5056137;28;20632;-79
2022/11/08 00:48:31;;;;;;;1.13;0.87;;;;;;;12.03;100.00;99957.63;5057616;28;20221;-79
2022/11/08 00:51:02;;;;;;;0.40;0.40;;;;;;;11.79;100.00;99906.94;5060072;28;20212;-79
2022/11/08 00:53:29;;;;;;;0.47;0.47;;;;;;;11.93;100.00;99920.22;5058038;28;20232;-79
2022/11/08 00:56:00;;;;;;;0.60;0.60;;;;;;;12.07;100.00;99938.69;5058507;28;20193;-79
2022/11/08 00:58:27;;;;;;;0.73;0.73;;;;;;;11.96;100.00;99920.13;5061207;28;20193;-79
2022/11/08 01:00:54;;;;;;;1.40;1.27;;;;;;;11.98;100.00;99910.69;5057934;28;20629;-78
2022/11/08 01:03:22;;;;;;;1.00;1.00;;;;;;;12.10;100.00;99926.59;5058122;28;20201;-78
2022/11/08 01:05:50;;;;;;;0.70;0.70;;;;;;;12.09;100.00;99917.19;5061897;28;20275;-79
2022/11/08 01:08:19;;;;;;;0.70;0.70;;;;;;;12.02;100.00;99909.69;5060433;28;20247;-77
2022/11/08 01:10:49;;;;;;;0.90;0.90;;;;;;;12.00;100.00;99909.75;5060081;28;20350;-79
2022/11/08 01:13:17;;;;;;;0.57;0.57;;;;;;;12.07;100.00;99908.69;5061555;28;20197;-78
2022/11/08 01:15:45;;;;;;;1.33;1.33;;;;;;;12.06;100.00;99896.72;5060026;28;20220;-78
2022/11/08 01:18:13;;;;;;;0.50;0.50;;;;;;;12.02;100.00;99901.97;5057403;28;20197;-78
2022/11/08 01:20:41;;;;;;;0.50;0.50;;;;;;;12.06;100.00;99912.16;5055485;28;20210;-78
2022/11/08 01:23:08;;;;;;;0.53;0.53;;;;;;;12.07;100.00;99902.72;5054570;28;20691;-78
2022/11/08 01:25:37;;;;;;;0.50;0.50;;;;;;;12.13;100.00;99910.25;5053777;28;20224;-77
2022/11/08 01:28:06;;;;;;;0.40;0.40;;;;;;;12.14;100.00;99904.22;5054384;28;20302;-78
2022/11/08 01:30:36;;;;;;;0.87;0.87;;;;;;;12.18;100.00;99899.84;5053461;28;20701;-78
2022/11/08 01:33:03;;;;;;;1.27;1.23;;;;;;;12.15;100.00;99890.47;5055064;28;20197;-78
2022/11/08 01:35:30;;;;;;;0.50;0.50;;;;;;;12.04;100.00;99882.25;5054396;28;20326;-77
2022/11/08 01:37:57;;;;;;;0.50;0.50;;;;;;;12.02;100.00;99879.69;5055272;28;20201;-78
2022/11/08 01:40:24;;;;;;;0.50;0.50;;;;;;;12.16;100.00;99894.72;5054115;28;20201;-78
2022/11/08 01:42:53;;;;;;;1.27;0.83;;;;;;;12.11;100.00;99878.63;5053012;28;20200;-78
2022/11/08 01:45:53;;;;;;;0.50;0.50;;;;;;;12.22;100.00;99896.28;5053711;28;20673;-77
2022/11/08 01:48:20;;;;;;;0.93;0.93;;;;;;;12.29;100.00;99896.06;5053507;28;20601;-79
2022/11/08 01:50:48;;;;;;;0.60;0.60;;;;;;;12.35;100.00;99902.75;5050675;28;20231;-78
2022/11/08 01:53:14;;;;;;;0.60;0.60;;;;;;;12.30;100.00;99896.91;5052218;28;20201;-78
2022/11/08 01:55:42;;;;;;;0.50;0.50;;;;;;;12.37;100.00;99896.69;5051864;28;20255;-77
2022/11/08 01:58:15;;;;;;;1.53;1.53;;;;;;;12.45;100.00;99894.72;5051214;28;20579;-78
2022/11/08 02:00:41;;;;;;;0.80;0.80;;;;;;;12.44;100.00;99893.03;5051499;28;20200;-78
2022/11/08 02:03:12;;;;;;;1.40;1.13;;;;;;;12.47;100.00;99902.41;5050760;28;20205;-79
2022/11/08 02:05:40;;;;;;;0.80;0.80;;;;;;;12.53;100.00;99894.50;5049919;28;20208;-78
2022/11/08 02:08:13;;;;;;;0.50;0.50;;;;;;;12.49;100.00;99893.75;5049726;28;20221;-78
2022/11/08 02:10:44;;;;;;;0.57;0.57;;;;;;;12.44;100.00;99898.19;5050533;28;20211;-78
2022/11/08 02:13:15;;;;;;;1.43;1.33;;;;;;;12.45;100.00;99899.88;5048728;28;20193;-77
2022/11/08 02:15:43;;;;;;;0.60;0.60;;;;;;;12.33;100.00;99874.53;5051047;28;20358;-79
2022/11/08 02:18:10;;;;;;;0.50;0.50;;;;;;;12.47;100.00;99898.09;5052493;28;20664;-78
2022/11/08 02:20:37;;;;;;;0.50;0.50;;;;;;;12.50;100.00;99908.28;5051960;28;20212;-78
2022/11/08 02:23:13;;;;;;;0.40;0.40;;;;;;;12.53;100.00;99910.78;5052284;28;20200;-78
2022/11/08 02:25:42;;;;;;;1.47;1.47;;;;;;;12.53;100.00;99903.06;5052244;28;20288;-78
2022/11/08 02:28:08;;;;;;;0.50;0.50;;;;;;;12.53;100.00;99908.22;5055703;28;20192;-78
2022/11/08 02:30:37;;;;;;;0.50;0.50;;;;;;;12.42;100.00;99887.09;5059261;28;20197;-79
2022/11/08 02:33:15;;;;;;;0.90;0.90;;;;;;;12.53;100.00;99917.66;5058896;28;20204;-78
2022/11/08 02:35:42;;;;;;;0.83;0.83;;;;;;;12.46;100.00;99911.84;5059248;28;20611;-79
2022/11/08 02:38:09;;;;;;;0.40;0.40;;;;;;;12.42;100.00;99910.25;5058399;28;20208;-78
2022/11/08 02:40:47;;;;;;;1.13;1.13;;;;;;;12.36;100.00;99909.59;5058858;28;20204;-78
2022/11/08 02:43:14;;;;;;;0.50;0.50;;;;;;;12.38;100.00;99912.94;5058704;28;20794;-78
2022/11/08 02:45:41;;;;;;;0.67;0.67;;;;;;;12.27;100.00;99910.69;5060598;28;20208;-78
2022/11/08 02:48:08;;;;;;;0.83;0.83;;;;;;;12.28;100.00;99909.78;5059367;28;20202;-79
2022/11/08 02:50:35;;;;;;;0.57;0.57;;;;;;;12.16;100.00;99887.03;5058558;28;20533;-78
2022/11/08 02:53:02;;;;;;;0.70;0.70;;;;;;;12.27;100.00;99905.56;5058651;28;20200;-78
2022/11/08 02:55:30;;;;;;;0.60;0.60;;;;;;;12.32;100.00;99903.69;5058708;28;20200;-78
2022/11/08 02:57:58;;;;;;;13.70;0.97;;;;;;;12.36;100.00;99899.31;5057906;28;20669;-78
2022/11/08 03:00:25;;;;;;;0.50;0.50;;;;;;;12.37;100.00;99901.84;5058508;28;20200;-78
2022/11/08 03:02:52;;;;;;;0.60;0.60;;;;;;;12.39;100.00;99902.63;5057816;28;20207;-78
2022/11/08 03:05:20;;;;;;;0.80;0.80;;;;;;;12.39;100.00;99905.19;5058477;28;20207;-77
2022/11/08 03:07:47;;;;;;;1.13;0.87;;;;;;;12.44;100.00;99902.50;5058198;28;20204;-78
2022/11/08 03:10:15;;;;;;;1.07;1.07;;;;;;;12.45;100.00;99905.00;5058199;28;20216;-78
2022/11/08 03:12:43;;;;;;;0.50;0.50;;;;;;;12.44;100.00;99897.34;5057161;28;20576;-78
2022/11/08 03:15:13;;;;;;;0.80;0.80;;;;;;;12.49;100.00;99896.31;5057609;28;20658;-78
2022/11/08 03:17:40;;;;;;;1.03;1.03;;;;;;;12.47;100.00;99904.97;5057981;28;20215;-78
2022/11/08 03:20:08;;;;;;;0.83;0.83;;;;;;;12.50;100.00;99908.28;5058689;28;20584;-79
2022/11/08 03:22:35;;;;;;;0.93;0.93;;;;;;;12.51;100.00;99912.53;5057009;28;20596;-78
2022/11/08 03:25:02;;;;;;;0.57;0.57;;;;;;;12.54;100.00;99914.16;5058961;28;20684;-78
2022/11/08 03:27:29;;;;;;;1.27;1.27;;;;;;;12.52;100.00;99914.22;5058626;28;20262;-78
2022/11/08 03:29:55;;;;;;;0.40;0.40;;;;;;;12.52;100.00;99914.22;5058421;28;20707;-78
2022/11/08 03:32:24;;;;;;;0.50;0.50;;;;;;;12.52;100.00;99921.94;5057983;28;20203;-78
2022/11/08 03:34:50;;;;;;;0.67;0.67;;;;;;;12.47;100.00;99913.50;5057204;28;20205;-78
2022/11/08 03:37:21;;;;;;;0.47;0.47;;;;;;;12.50;100.00;99913.41;5057891;28;20201;-78
2022/11/08 03:39:48;;;;;;;0.50;0.50;;;;;;;12.50;100.00;99907.47;5055070;28;20201;-78
2022/11/08 03:42:15;;;;;;;1.07;1.07;;;;;;;12.46;100.00;99896.41;5055682;28;20204;-78
2022/11/08 03:44:42;;;;;;;0.60;0.60;;;;;;;12.45;100.00;99888.75;5056511;28;20578;-77
2022/11/08 03:47:09;;;;;;;0.70;0.70;;;;;;;12.41;100.00;99871.72;5055182;28;20203;-77
2022/11/08 03:49:37;;;;;;;1.37;1.37;;;;;;;12.32;100.00;99888.25;5052703;28;20224;-76
2022/11/08 03:52:04;;;;;;;0.90;0.90;;;;;;;12.32;100.00;99888.25;5052105;28;20680;-78
2022/11/08 03:54:31;;;;;;;0.50;0.50;;;;;;;12.33;100.00;99897.66;5055353;28;20220;-78
2022/11/08 03:56:58;;;;;;;0.50;0.50;;;;;;;12.34;100.00;99895.94;5055031;28;20629;-78
2022/11/08 03:59:25;;;;;;;0.50;0.50;;;;;;;12.35;100.00;99893.31;5054221;28;20193;-78
2022/11/08 04:01:51;;;;;;;1.03;1.03;;;;;;;12.37;100.00;99888.97;5053784;28;20212;-77
2022/11/08 04:04:18;;;;;;;0.97;0.97;;;;;;;12.34;100.00;99889.03;5053369;28;20208;-78
2022/11/08 04:06:47;;;;;;;1.27;1.27;;;;;;;12.10;100.00;99866.63;5054891;28;20283;-77
2022/11/08 04:09:14;;;;;;;1.10;1.10;;;;;;;12.22;100.00;99881.69;5054676;28;20303;-78
2022/11/08 04:17:17;;;;;;;0.90;0.90;;;;;;;12.24;100.00;99910.78;5054255;28;20654;-78
2022/11/08 04:22:30;;;;;;;0.50;0.50;;;;;;;12.25;100.00;99917.59;5053542;28;20270;-78
2022/11/08 04:24:56;;;;;;;1.17;1.17;;;;;;;12.26;100.00;99908.16;5054358;28;20205;-78
2022/11/08 04:27:23;;;;;;;0.53;0.53;;;;;;;12.26;100.00;99913.31;5053921;28;20201;-78
2022/11/08 04:29:50;;;;;;;0.70;0.70;;;;;;;12.28;100.00;99914.94;5053477;28;20220;-78
2022/11/08 04:32:17;;;;;;;0.97;0.97;;;;;;;12.27;100.00;99910.69;5053100;28;20223;-77
2022/11/08 04:34:43;;;;;;;0.70;0.70;;;;;;;12.29;100.00;99916.63;5053560;28;20207;-77
2022/11/08 04:37:13;;;;;;;1.23;1.23;;;;;;;12.28;100.00;99907.22;5053184;28;20215;-78
2022/11/08 04:39:41;;;;;;;0.50;0.50;;;;;;;12.26;100.00;99908.16;5052643;28;20204;-77
2022/11/08 04:42:07;;;;;;;0.63;0.63;;;;;;;12.03;100.00;99895.97;5052339;28;20193;-76
2022/11/08 04:44:34;;;;;;;0.50;0.50;;;;;;;11.98;100.00;99893.53;5052389;28;20584;-77
2022/11/08 04:47:01;;;;;;;0.60;0.60;;;;;;;11.72;100.00;99895.13;5052433;28;20255;-77
2022/11/08 04:49:28;;;;;;;0.57;0.57;;;;;;;11.75;100.00;99910.47;5052688;28;20273;-77
2022/11/08 04:51:54;;;;;;;0.90;0.90;;;;;;;11.76;100.00;99912.16;5053905;28;20204;-77
2022/11/08 04:54:21;;;;;;;0.60;0.60;;;;;;;11.77;100.00;99917.22;5054345;28;20200;-77
2022/11/08 04:56:49;;;;;;;0.50;0.50;;;;;;;11.80;100.00;99924.00;5051770;28;20205;-77
2022/11/08 04:59:16;;;;;;;0.93;0.93;;;;;;;11.82;100.00;99928.25;5050683;28;20605;-76
2022/11/08 05:01:43;;;;;;;3.30;0.80;;;;;;;11.87;100.00;99935.81;5050107;28;20754;-77
2022/11/08 05:04:10;;;;;;;0.50;0.50;;;;;;;11.90;100.00;99930.59;5052772;28;20609;-78
2022/11/08 05:06:36;;;;;;;0.50;0.50;;;;;;;11.93;100.00;99931.34;5053994;28;20205;-78
2022/11/08 05:09:04;;;;;;;0.80;0.80;;;;;;;11.97;100.00;99937.25;5052361;28;20270;-78
2022/11/08 05:11:31;;;;;;;0.60;0.60;;;;;;;12.00;100.00;99942.31;5052499;28;20200;-78
2022/11/08 05:13:59;;;;;;;1.10;1.10;;;;;;;11.97;100.00;99939.81;5052620;28;20205;-78
2022/11/08 05:16:28;;;;;;;0.80;0.80;;;;;;;11.99;100.00;99938.88;5051013;28;20638;-77
2022/11/08 05:18:55;;;;;;;0.67;0.67;;;;;;;12.01;100.00;99944.84;5051780;28;20200;-78
2022/11/08 05:24:10;;;;;;;1.07;1.07;;;;;;;12.10;100.00;99948.88;5053221;28;20699;-78
2022/11/08 05:26:42;;;;;;;0.53;0.53;;;;;;;12.12;100.00;99944.53;5053280;28;20664;-78
2022/11/08 05:29:10;;;;;;;0.60;0.60;;;;;;;12.13;100.00;99937.66;5053180;28;20294;-78
2022/11/08 05:31:37;;;;;;;0.67;0.67;;;;;;;12.11;100.00;99940.28;5051892;28;20219;-77
2022/11/08 05:34:06;;;;;;;0.50;0.50;;;;;;;12.10;100.00;99946.31;5053493;28;20200;-77
2022/11/08 05:36:33;;;;;;;0.40;0.40;;;;;;;12.01;100.00;99932.00;5053898;28;20201;-78
2022/11/08 05:39:00;;;;;;;0.80;0.80;;;;;;;12.12;100.00;99952.25;5053239;28;20635;-78
2022/11/08 05:41:27;;;;;;;0.77;0.77;;;;;;;12.13;100.00;99953.94;5052958;28;20200;-78
2022/11/08 05:43:55;;;;;;;0.63;0.63;;;;;;;12.18;100.00;99958.97;5053665;28;20687;-78
2022/11/08 05:46:24;;;;;;;0.60;0.60;;;;;;;12.17;100.00;99960.69;5055076;28;20574;-78
2022/11/08 05:48:51;;;;;;;0.67;0.67;;;;;;;12.18;100.00;99964.91;5054030;28;20211;-78
2022/11/08 05:51:19;;;;;;;0.60;0.60;;;;;;;12.23;100.00;99965.66;5053665;28;20203;-78
2022/11/08 05:53:47;;;;;;;1.33;1.33;;;;;;;12.21;100.00;99959.72;5053769;28;20197;-76
2022/11/08 05:56:14;;;;;;;0.40;0.40;;;;;;;12.24;100.00;99967.34;5052903;28;20684;-77
2022/11/08 05:58:41;;;;;;;0.50;0.50;;;;;;;12.24;100.00;99966.50;5048026;28;20343;-77
2022/11/08 06:01:09;;;;;;;0.77;0.77;;;;;;;12.15;100.00;99947.00;5048251;28;20243;-77
2022/11/08 06:03:38;;;;;;;0.57;0.57;;;;;;;12.29;100.00;99970.63;5048827;28;20197;-78
2022/11/08 06:06:07;;;;;;;1.90;1.53;;;;;;;12.29;100.00;99970.63;5050433;28;20258;-78
2022/11/08 06:08:34;;;;;;;0.70;0.70;;;;;;;12.28;100.00;99968.91;5050658;28;20646;-78
2022/11/08 06:11:05;;;;;;;1.17;1.17;;;;;;;12.25;100.00;99963.88;5051962;28;20217;-78
2022/11/08 06:13:32;;;;;;;0.60;0.60;;;;;;;12.33;100.00;99977.38;5051286;28;20192;-78
2022/11/08 06:16:02;;;;;;;0.70;0.70;;;;;;;12.34;100.00;99973.88;5050819;28;20237;-78
2022/11/08 06:18:29;;;;;;;0.70;0.70;;;;;;;12.36;100.00;99972.13;5048758;28;20665;-78
2022/11/08 06:20:59;;;;;;;0.50;0.50;;;;;;;12.40;100.00;99978.03;5050909;28;20204;-77
2022/11/08 06:23:26;;;;;;;0.53;0.53;;;;;;;12.41;100.00;99983.13;5052190;28;20200;-76
2022/11/08 06:25:53;;;;;;;0.50;0.50;;;;;;;12.45;100.00;99982.16;5050386;28;20258;-76
2022/11/08 06:28:20;;;;;;;3.37;1.13;;;;;;;12.42;100.00;99982.25;5050438;28;20661;-76
2022/11/08 06:30:48;;;;;;;1.40;1.40;;;;;;;12.41;100.00;99980.56;5049790;28;20258;-76
2022/11/08 06:33:16;;;;;;;1.50;1.50;;;;;;;12.45;100.00;99976.16;5048101;28;20201;-76
2022/11/08 06:35:43;;;;;;;2.03;1.87;;;;;;;12.53;100.00;99977.66;5050366;28;20204;-76
2022/11/08 06:38:11;;;;;;;0.50;0.50;;;;;;;12.45;100.00;99977.00;5050323;28;20197;-72
2022/11/08 06:40:41;;;;;;;0.50;0.50;;;;;;;12.55;100.00;99986.16;5050103;28;20205;-74
2022/11/08 06:43:10;;;;;;;0.43;0.43;;;;;;;12.51;100.00;99989.69;5050631;28;20338;-74
2022/11/08 06:45:38;;;;;;;0.50;0.50;;;;;;;12.45;100.00;99973.59;5051909;28;20570;-77
2022/11/08 06:48:06;;;;;;;0.50;0.50;;;;;;;12.53;100.00;99980.22;5049939;28;20200;-78
2022/11/08 06:50:35;;;;;;;0.60;0.60;;;;;;;12.57;100.00;99981.78;5048009;28;20259;-78
2022/11/08 06:53:03;;;;;;;0.80;0.80;;;;;;;12.64;100.00;99982.47;5049289;28;20200;-77
2022/11/08 06:55:32;;;;;;;0.80;0.80;;;;;;;12.75;100.00;99989.88;5047452;28;20585;-77
2022/11/08 06:57:59;;;;;;;1.00;1.00;;;;;;;12.81;100.00;99989.69;5046196;28;20204;-78
2022/11/08 07:00:26;;;;;;;0.57;0.57;;;;;;;12.89;100.00;99991.13;5048217;28;20599;-77
2022/11/08 07:02:54;;;;;;;1.60;1.07;;;;;;;12.90;100.00;99979.09;5049235;28;20209;-76
2022/11/08 07:05:21;;;;;;;0.70;0.70;;;;;;;13.01;100.00;99993.34;5049455;28;20197;-78
2022/11/08 07:07:50;;;;;;;0.60;0.60;;;;;;;13.02;100.00;99983.91;5049629;28;20235;-77
2022/11/08 07:10:18;;;;;;;0.50;0.50;;;;;;;12.99;100.00;99987.38;5048035;28;20223;-76
2022/11/08 07:12:46;;;;;;;0.97;0.97;;;;;;;13.01;100.00;99995.09;5049097;28;20259;-77
2022/11/08 07:15:13;;;;;;;0.80;0.80;;;;;;;13.07;100.00;99992.31;5050790;28;20229;-77
2022/11/08 07:17:40;;;;;;;1.10;1.10;;;;;;;13.14;100.00;99991.28;5052895;28;20292;-77
2022/11/08 07:20:08;;;;;;;1.03;0.77;;;;;;;13.07;100.00;99964.00;5050217;28;20254;-77
2022/11/08 07:22:35;;;;;;;0.90;0.90;;;;;;;13.17;100.00;99998.91;5054680;28;20584;-76
2022/11/08 07:25:02;;;;;;;0.50;0.50;;;;;;;13.14;100.00;99999.84;5053714;28;20201;-74
2022/11/08 07:27:29;;;;;;;0.50;0.50;;;;;;;13.18;100.00;99992.88;5053160;28;20216;-72
2022/11/08 07:29:57;;;;;;;0.93;0.93;;;;;;;13.19;100.00;99991.97;5050212;28;20686;-73
2022/11/08 07:32:23;;;;;;;0.50;0.50;;;;;;;13.24;100.00;99984.09;5054102;28;20209;-75
2022/11/08 07:34:50;;;;;;;0.90;0.90;;;;;;;13.26;100.00;99990.03;5053751;28;20208;-75
2022/11/08 07:37:17;;;;;;;0.50;0.50;;;;;;;13.30;100.00;99982.19;5053731;28;20266;-77
2022/11/08 07:39:44;;;;;;;0.60;0.60;;;;;;;13.33;100.00;99991.53;5052973;28;20250;-76
2022/11/08 07:42:11;;;;;;;0.80;0.80;;;;;;;13.35;100.00;99979.44;5052386;28;20200;-77
2022/11/08 07:44:38;;;;;;;1.07;1.07;;;;;;;13.36;100.00;99991.44;5052295;28;20219;-77
2022/11/08 07:47:06;;;;;;;1.20;1.20;;;;;;;13.43;100.00;99985.19;5052492;28;20200;-76
2022/11/08 07:49:33;;;;;;;0.57;0.57;;;;;;;13.50;100.00;99991.84;5051675;28;20208;-77
2022/11/08 07:51:59;;;;;;;0.97;0.97;;;;;;;13.52;100.00;99990.88;5051711;28;20205;-80
2022/11/08 07:54:26;;;;;;;0.50;0.50;;;;;;;13.43;100.00;99986.03;5049514;28;20207;-75
2022/11/08 07:56:53;;;;;;;1.10;1.10;;;;;;;13.48;100.00;99988.44;5051809;28;20208;-76
2022/11/08 07:59:20;;;;;;;0.40;0.40;;;;;;;13.41;100.00;99985.22;5052255;28;20208;-74
2022/11/08 08:01:46;;;;;;;1.33;1.33;;;;;;;13.40;100.00;99980.16;5052369;28;20639;-74
2022/11/08 08:04:15;;;;;;;0.93;0.93;;;;;;;13.38;100.00;99972.47;5052325;28;20197;-74
2022/11/08 08:06:42;;;;;;;0.93;0.93;;;;;;;13.46;100.00;99985.94;5051375;28;20562;-74
2022/11/08 08:09:08;;;;;;;0.90;0.90;;;;;;;13.54;100.00;99985.69;5051129;28;20205;-75
2022/11/08 08:11:35;;;;;;;2.37;2.00;;;;;;;13.58;100.00;99980.38;5051808;28;20852;-75
2022/11/08 08:14:02;;;;;;;0.80;0.80;;;;;;;13.57;100.00;99983.84;5052563;28;20208;-76
2022/11/08 08:16:29;;;;;;;0.40;0.40;;;;;;;13.57;100.00;99983.03;5048651;28;20729;-74
2022/11/08 08:18:57;;;;;;;0.60;0.60;;;;;;;13.73;100.00;99986.78;5048092;28;20200;-76
2022/11/08 08:21:25;;;;;;;0.53;0.53;;;;;;;13.79;100.00;99988.28;5046801;28;20237;-75
2022/11/08 08:23:52;;;;;;;0.73;0.73;;;;;;;13.83;100.00;99979.56;5048178;28;20296;-75
2022/11/08 08:26:19;;;;;;;0.80;0.80;;;;;;;13.93;100.00;99981.75;5051073;28;20200;-75
2022/11/08 08:28:46;;;;;;;0.97;0.97;;;;;;;14.02;100.00;99985.78;5045339;28;20205;-75
2022/11/08 08:31:12;;;;;;;0.93;0.93;;;;;;;14.14;100.00;99975.03;5047025;28;20227;-75
2022/11/08 08:33:39;;;;;;;0.60;0.60;;;;;;;14.26;100.00;99987.47;5050992;28;20266;-75
2022/11/08 08:36:07;;;;;;;0.60;0.60;;;;;;;14.30;100.00;99980.47;5051312;28;20204;-75
2022/11/08 08:38:35;;;;;;;0.87;0.87;;;;;;;14.35;100.00;99979.44;5050586;28;20657;-75
2022/11/08 08:41:02;;;;;;;1.00;1.00;;;;;;;14.44;100.00;99986.84;5041918;28;20228;-75
2022/11/08 08:43:31;;;;;;;0.80;0.80;;;;;;;14.56;100.00;99986.41;5040760;28;20203;-75
2022/11/08 08:45:59;;;;;;;0.57;0.57;;;;;;;14.65;100.00;99983.47;5044627;28;20222;-76
2022/11/08 08:48:26;;;;;;;0.63;0.63;;;;;;;14.70;100.00;99984.13;5050305;28;20292;-75
2022/11/08 08:50:53;;;;;;;0.43;0.43;;;;;;;14.78;100.00;99983.00;5050431;28;20218;-74
2022/11/08 08:53:20;;;;;;;0.80;0.80;;;;;;;14.89;100.00;99984.31;5050304;28;20203;-75
2022/11/08 08:55:51;;;;;;;0.60;0.60;;;;;;;14.99;100.00;99988.19;5047682;28;20230;-75
2022/11/08 08:58:18;;;;;;;0.50;0.50;;;;;;;15.10;99.80;99995.53;5050220;28;20241;-75
2022/11/08 09:00:45;;;;;;;0.73;0.73;;;;;;;15.29;98.80;99993.88;5048346;28;20865;-76
2022/11/08 09:03:13;;;;;;;1.23;1.23;;;;;;;15.45;100.00;99994.09;5049080;28;20229;-75
2022/11/08 09:05:42;;;;;;;0.60;0.60;;;;;;;15.56;96.79;99990.25;5043974;28;20219;-74
2022/11/08 09:08:10;;;;;;;0.70;0.70;;;;;;;15.69;95.87;99991.41;5044470;28;20227;-74
2022/11/08 09:10:36;;;;;;;0.83;0.83;;;;;;;15.63;94.70;99994.25;5045985;28;20224;-74
2022/11/08 09:13:05;;;;;;;0.80;0.80;;;;;;;15.50;94.48;99974.13;5044707;28;20205;-74
2022/11/08 09:15:33;;;;;;;0.60;0.60;;;;;;;15.65;95.13;99986.41;5043471;28;20236;-75
2022/11/08 09:17:59;;;;;;;0.80;0.80;;;;;;;15.85;95.15;99986.44;5043909;28;20232;-75
2022/11/08 09:20:26;;;;;;;0.83;0.83;;;;;;;16.01;93.11;99987.47;5043941;28;20240;-74
2022/11/08 09:22:53;;;;;;;0.73;0.73;;;;;;;16.19;92.56;99996.16;5043591;28;20288;-75
2022/11/08 09:25:20;;;;;;;0.50;0.50;;;;;;;16.24;92.05;99991.63;5042893;28;20205;-74
2022/11/08 09:27:47;;;;;;;0.73;0.73;;;;;;;16.23;91.48;99993.38;5045737;28;20217;-74
2022/11/08 09:30:15;;;;;;;0.50;0.50;;;;;;;16.28;90.92;99993.19;5046395;28;20697;-73
2022/11/08 09:32:42;;;;;;;0.70;0.70;;;;;;;16.27;90.86;99991.50;5045341;28;20677;-74
2022/11/08 09:35:08;;;;;;;0.60;0.60;;;;;;;16.34;91.25;99986.91;5043831;28;20672;-74
2022/11/08 09:37:35;;;;;;;0.50;0.50;;;;;;;16.44;90.58;99989.03;5042642;28;20243;-75
2022/11/08 09:40:02;;;;;;;0.70;0.70;;;;;;;16.50;89.38;99990.47;5043169;28;20208;-74
2022/11/08 09:42:45;;;;;;;0.40;0.40;;;;;;;16.50;89.72;99991.31;5044471;28;20201;-77
2022/11/08 09:45:24;;;;;;;0.40;0.40;;;;;;;16.56;89.88;99983.31;5048549;28;20218;-76
2022/11/08 09:47:57;;;;;;;0.77;0.77;;;;;;;16.55;89.16;99973.03;5050188;28;20692;-76
2022/11/08 09:50:31;;;;;;;0.90;0.90;;;;;;;16.55;88.20;99979.03;5049811;28;20227;-78
2022/11/08 09:53:06;;;;;;;0.77;0.77;;;;;;;16.71;87.99;99979.19;5047694;28;20204;-76
2022/11/08 09:55:38;;;;;;;0.87;0.87;;;;;;;16.85;89.41;99981.13;5050045;28;20629;-76
2022/11/08 09:58:15;;;;;;;0.93;0.93;;;;;;;17.03;87.44;99975.94;5049738;28;20262;-77
2022/11/08 10:00:44;;;;;;;0.40;0.40;;;;;;;17.07;86.43;99976.63;5050076;28;20242;-76
2022/11/08 10:03:14;;;;;;;0.70;0.70;;;;;;;17.13;86.30;99965.97;5049416;28;20654;-77
2022/11/08 10:05:45;;;;;;;0.83;0.83;;;;;;;17.23;87.12;99974.97;5047447;28;20205;-76
2022/11/08 10:08:25;;;;;;;0.60;0.60;;;;;;;17.22;85.41;99975.91;5049986;28;20219;-76
2022/11/08 10:11:08;;;;;;;0.60;0.60;;;;;;;17.21;85.60;99974.22;5049439;28;20226;-76
2022/11/08 10:13:48;;;;;;;1.03;1.03;;;;;;;17.31;85.59;99970.28;5049743;28;20279;-76
2022/11/08 10:16:29;;;;;;;0.70;0.70;;;;;;;17.38;85.14;99966.47;5049313;28;20231;-75
2022/11/08 10:19:20;;;;;;;0.60;0.60;;;;;;;17.52;84.92;99963.19;5048507;28;20205;-75
2022/11/08 10:21:56;;;;;;;0.63;0.63;;;;;;;17.67;84.74;99973.66;5044773;28;20211;-76
2022/11/08 10:24:34;;;;;;;0.70;0.60;;;;;;;17.79;83.54;99967.03;5044680;28;20222;-75
2022/11/08 10:27:01;;;;;;;1.13;1.13;;;;;;;17.80;84.38;99948.78;5043870;28;20608;-75
2022/11/08 10:29:35;;;;;;;0.60;0.60;;;;;;;17.94;82.99;99963.66;5048212;28;20671;-75
2022/11/08 10:32:12;;;;;;;0.50;0.50;;;;;;;17.92;81.74;99954.28;5048909;28;20714;-75
2022/11/08 10:34:45;;;;;;;2.03;1.93;;;;;;;17.98;81.62;99961.75;5048009;28;20208;-75
2022/11/08 10:37:15;;;;;;;0.50;0.50;;;;;;;17.90;81.84;99948.34;5041205;28;20209;-73
2022/11/08 10:39:48;;;;;;;1.13;1.13;;;;;;;17.93;82.42;99951.63;5048619;28;20205;-73
2022/11/08 10:42:20;;;;;;;0.60;0.60;;;;;;;17.96;82.13;99953.22;5047746;28;20553;-73
2022/11/08 10:44:47;;;;;;;0.63;0.63;;;;;;;18.01;81.83;99953.81;5047545;28;20262;-75
2022/11/08 10:47:21;;;;;;;0.67;0.67;;;;;;;18.03;81.74;99949.38;5047763;28;20204;-73
2022/11/08 10:49:48;;;;;;;0.43;0.43;;;;;;;18.00;82.27;99949.53;5044933;28;20289;-75
2022/11/08 10:52:19;;;;;;;0.50;0.50;;;;;;;17.72;81.97;99924.16;5040187;28;20337;-76
2022/11/08 10:54:48;;;;;;;0.50;0.50;;;;;;;17.66;82.92;99935.69;5042657;28;20279;-74
2022/11/08 10:57:17;;;;;;;0.73;0.73;;;;;;;17.56;82.41;99913.75;5052293;28;20215;-73
2022/11/08 10:59:45;;;;;;;0.80;0.80;;;;;;;17.73;83.22;99936.22;5053343;28;20200;-73
2022/11/08 11:02:23;;;;;;;0.67;0.67;;;;;;;17.63;83.96;99920.31;5053169;28;20664;-73
2022/11/08 11:04:50;;;;;;;1.10;0.90;;;;;;;17.65;83.84;99922.81;5052876;28;20668;-74
2022/11/08 11:07:34;;;;;;;0.63;0.63;;;;;;;17.79;84.11;99926.38;5051547;28;20219;-74
2022/11/08 11:10:21;;;;;;;0.70;0.70;;;;;;;17.80;84.36;99922.03;5048560;28;20200;-72
2022/11/08 11:12:50;;;;;;;0.67;0.67;;;;;;;17.87;82.84;99917.38;5052049;28;20664;-75
2022/11/08 11:15:17;;;;;;;0.60;0.60;;;;;;;17.92;82.21;99905.00;5050486;28;20704;-72
2022/11/08 11:17:46;;;;;;;0.43;0.43;;;;;;;18.06;82.93;99912.91;5049644;28;20205;-72
2022/11/08 11:20:22;;;;;;;0.83;0.83;;;;;;;18.01;81.60;99900.16;5048401;28;20215;-75
2022/11/08 11:22:51;;;;;;;0.60;0.60;;;;;;;17.96;81.66;99911.69;5047944;28;20905;-73
2022/11/08 11:25:19;;;;;;;1.17;1.17;;;;;;;17.91;81.78;99914.53;5049081;28;20214;-73
2022/11/08 11:27:52;;;;;;;0.80;0.80;;;;;;;17.77;81.77;99881.50;5050885;28;20254;-75
2022/11/08 11:30:29;;;;;;;0.40;0.40;;;;;;;18.09;81.96;99912.75;5050900;28;20196;-74
2022/11/08 11:33:03;;;;;;;0.70;0.70;;;;;;;18.21;80.77;99909.50;5049319;28;20729;-72
2022/11/08 11:35:41;;;;;;;0.50;0.50;;;;;;;18.26;81.01;99902.28;5049032;28;20637;-74
2022/11/08 11:38:17;;;;;;;0.60;0.60;;;;;;;18.26;80.54;99904.88;5049420;28;20215;-73
2022/11/08 11:40:47;;;;;;;0.30;0.30;;;;;;;18.34;80.66;99902.72;5050085;28;20205;-75
2022/11/08 11:43:20;;;;;;;0.50;0.50;;;;;;;18.26;79.78;99878.91;5050470;28;20213;-78
2022/11/08 11:45:53;;;;;;;1.17;1.17;;;;;;;18.45;79.49;99900.38;5050370;28;21322;-77
2022/11/08 11:48:27;;;;;;;0.67;0.67;;;;;;;18.47;79.55;99892.50;5051417;28;20216;-75
2022/11/08 11:50:54;;;;;;;0.50;0.50;;;;;;;18.52;79.15;99899.16;5050926;28;20663;-75
2022/11/08 11:53:24;;;;;;;0.97;0.97;;;;;;;18.53;79.02;99889.59;5046994;28;20217;-75
2022/11/08 11:56:27;;;;;;;0.50;0.50;;;;;;;18.61;79.34;99895.22;5046852;28;20208;-75